Miyazaki, Japan
Current Conditions -  °F | °C
As of 6:10 AM on Tuesday 21 Oct 2014 (Local Time) from RJFM Reporting Station
Broken Clouds Broken Clouds  
Wind Chill: 64°   Ceiling: Unl
Heat Index: 64°   Visibility: 6mi
Dew Point: 61°   Wind: 6mph
Humidity: 88%   Direction: 260°W
Pressure: 30.03"   Gusts: NA
Location:  31.91°N, 131.42°E
Report Text: RJFM 202110Z 26005KT 9999 FEW030 BKN/// 18/16 Q1017 RMK 1CU030 A3005
Loading
Personal Weather Stations






























Interactive Weather Map
Tropical Storm Tracking
New forecast layout! Learn more

10-Day Weather Forecast

Advertisements
Track Severe Weather on mobile